createdAt,value
2019-04-01T00:02:08.052Z,78.74
2019-04-01T00:04:34.065Z,78.46
2019-04-01T00:07:00.066Z,78.30
2019-04-01T00:09:26.096Z,77.81
2019-04-01T00:11:52.082Z,78.38
2019-04-01T00:14:18.128Z,78.42
2019-04-01T00:16:44.133Z,78.22
2019-04-01T00:19:10.121Z,78.75
2019-04-01T00:21:36.142Z,80.12
2019-04-01T00:24:02.170Z,79.65
2019-04-01T00:26:28.154Z,79.16
2019-04-01T00:28:54.124Z,76.94
2019-04-01T00:31:20.199Z,76.28
2019-04-01T00:33:46.180Z,76.52
2019-04-01T00:36:12.208Z,76.90
2019-04-01T00:38:38.211Z,76.58
2019-04-01T00:41:04.241Z,76.76
2019-04-01T00:43:48.576Z,76.77
2019-04-01T00:46:16.468Z,77.11
2019-04-01T00:48:42.516Z,77.58
2019-04-01T00:51:08.617Z,77.63
2019-04-01T00:53:34.631Z,77.86
2019-04-01T00:56:00.711Z,78.65
2019-04-01T00:58:30.171Z,78.86
2019-04-01T01:00:54.844Z,78.83
2019-04-01T01:03:20.913Z,78.56
2019-04-01T01:05:46.899Z,78.58
2019-04-01T01:08:12.946Z,78.59
2019-04-01T01:10:39.224Z,79.10
2019-04-01T01:13:05.243Z,79.03
2019-04-01T01:15:31.307Z,79.10
2019-04-01T01:17:57.336Z,79.17
2019-04-01T01:20:23.342Z,79.15
2019-04-01T01:22:49.353Z,78.90
2019-04-01T01:25:15.373Z,78.55
2019-04-01T01:27:41.519Z,78.79
2019-04-01T01:30:08.247Z,78.54
2019-04-01T01:32:34.276Z,79.45
2019-04-01T01:35:00.349Z,79.34
2019-04-01T01:37:26.633Z,78.82
2019-04-01T01:39:53.730Z,79.25
2019-04-01T01:42:19.887Z,79.32
2019-04-01T01:44:45.913Z,79.30
2019-04-01T01:47:12.139Z,79.45
2019-04-01T01:49:38.128Z,79.41
2019-04-01T01:52:04.367Z,79.23
2019-04-01T01:54:30.601Z,79.12
2019-04-01T01:56:56.592Z,78.86
2019-04-01T01:59:22.612Z,79.04
2019-04-01T02:01:48.631Z,79.38
2019-04-01T02:04:14.611Z,79.60
2019-04-01T02:06:40.815Z,79.75
2019-04-01T02:09:06.799Z,80.36
2019-04-01T02:11:32.784Z,80.25
2019-04-01T02:13:58.921Z,80.25
2019-04-01T02:16:24.895Z,80.19
2019-04-01T02:18:50.872Z,80.05
2019-04-01T02:21:16.906Z,79.41
2019-04-01T02:23:43.126Z,79.78
2019-04-01T02:26:09.117Z,79.88
2019-04-01T02:28:35.401Z,80.34
2019-04-01T02:31:01.428Z,80.60
2019-04-01T02:33:27.508Z,80.42
2019-04-01T02:35:53.532Z,80.16
2019-04-01T02:38:19.519Z,80.15
2019-04-01T02:40:45.559Z,80.59
2019-04-01T02:43:11.550Z,80.61
2019-04-01T02:45:37.691Z,81.27
2019-04-01T02:48:04.154Z,81.02
2019-04-01T02:50:30.233Z,81.26
2019-04-01T02:52:56.363Z,81.39
2019-04-01T02:55:22.352Z,80.84
2019-04-01T02:57:48.425Z,80.77
2019-04-01T03:00:15.049Z,80.58
2019-04-01T03:02:41.064Z,80.51
2019-04-01T03:05:07.334Z,80.35
2019-04-01T03:07:33.421Z,80.56
2019-04-01T03:09:59.514Z,80.23
2019-04-01T03:12:25.639Z,79.52
2019-04-01T03:14:51.634Z,79.75
2019-04-01T03:17:17.762Z,80.22
2019-04-01T03:19:43.808Z,80.59
2019-04-01T03:22:09.856Z,80.56
2019-04-01T03:24:35.912Z,80.90
2019-04-01T03:27:01.953Z,81.40
2019-04-01T03:29:27.982Z,81.42
2019-04-01T03:31:54.256Z,81.31
2019-04-01T03:34:20.571Z,80.87
2019-04-01T03:36:46.580Z,80.93
2019-04-01T03:39:12.591Z,80.79
2019-04-01T03:41:38.596Z,80.25
2019-04-01T03:44:04.625Z,81.33
2019-04-01T03:46:30.661Z,84.14
2019-04-01T03:48:56.753Z,81.44
2019-04-01T03:51:22.885Z,80.19
2019-04-01T03:53:48.907Z,79.93
2019-04-01T03:56:14.968Z,80.13
2019-04-01T03:58:41.040Z,80.19
2019-04-01T04:01:07.068Z,80.51
2019-04-01T04:03:33.052Z,80.87
2019-04-01T04:05:59.164Z,81.31
2019-04-01T04:08:25.156Z,81.26
2019-04-01T04:10:51.151Z,81.31
2019-04-01T04:13:17.298Z,81.38
2019-04-01T04:15:43.298Z,81.19
2019-04-01T04:18:09.344Z,81.39
2019-04-01T04:20:35.402Z,81.25
2019-04-01T04:23:01.423Z,81.17
2019-04-01T04:25:28.465Z,81.43
2019-04-01T04:27:54.528Z,81.73
2019-04-01T04:30:20.582Z,81.82
2019-04-01T04:32:46.558Z,81.93
2019-04-01T04:35:12.744Z,82.44
2019-04-01T04:37:38.780Z,83.01
2019-04-01T04:40:05.732Z,83.20
2019-04-01T04:42:31.720Z,83.31
2019-04-01T04:44:57.931Z,83.10
2019-04-01T04:47:24.074Z,82.94
2019-04-01T04:49:50.204Z,82.69
2019-04-01T04:52:16.451Z,82.81
2019-04-01T04:54:42.475Z,82.21
2019-04-01T04:57:08.509Z,81.78
2019-04-01T04:59:34.558Z,82.95
2019-04-01T05:02:00.650Z,82.78
2019-04-01T05:04:26.948Z,82.75
2019-04-01T05:06:53.032Z,82.60
2019-04-01T05:09:19.188Z,82.24
2019-04-01T05:11:45.253Z,81.86
2019-04-01T05:14:11.265Z,81.35
2019-04-01T05:16:37.259Z,81.43
2019-04-01T05:19:03.431Z,81.82
2019-04-01T05:21:31.064Z,81.78
2019-04-01T05:23:57.075Z,82.47
2019-04-01T05:26:23.745Z,81.76
2019-04-01T05:28:50.211Z,81.53
2019-04-01T05:31:17.908Z,81.44
2019-04-01T05:33:54.838Z,81.81
2019-04-01T05:36:12.560Z,81.81
2019-04-01T05:38:38.720Z,81.96
2019-04-01T05:41:04.896Z,81.74
2019-04-01T05:43:31.000Z,81.64
2019-04-01T05:45:57.001Z,81.31
2019-04-01T05:48:25.111Z,81.51
2019-04-01T05:50:51.971Z,81.83
2019-04-01T05:53:18.099Z,82.13
2019-04-01T05:55:44.215Z,81.71
2019-04-01T05:58:10.264Z,80.67
2019-04-01T06:00:41.308Z,79.16
2019-04-01T06:03:07.299Z,78.16
2019-04-01T06:05:33.483Z,77.66
2019-04-01T06:07:59.620Z,77.71
2019-04-01T06:10:25.972Z,77.48
2019-04-01T06:12:52.079Z,75.62
2019-04-01T06:15:18.299Z,73.60
2019-04-01T06:17:44.571Z,72.85
2019-04-01T06:20:10.828Z,71.27
2019-04-01T06:22:37.123Z,70.46
2019-04-01T06:25:05.190Z,70.56
2019-04-01T06:27:32.038Z,69.20
2019-04-01T06:29:59.336Z,68.54
2019-04-01T06:32:25.574Z,67.76
2019-04-01T06:34:53.114Z,66.98
2019-04-01T06:37:19.303Z,66.35
2019-04-01T06:39:45.295Z,64.06
2019-04-01T06:42:11.295Z,63.16
2019-04-01T06:44:37.340Z,63.61
2019-04-01T06:47:03.447Z,63.13
2019-04-01T06:49:29.433Z,62.06
2019-04-01T06:51:55.760Z,61.61
2019-04-01T06:54:21.805Z,60.84
2019-04-01T06:56:47.924Z,59.34
2019-04-01T06:59:13.971Z,58.62
2019-04-01T07:01:40.011Z,57.11
2019-04-01T07:04:06.026Z,56.59
2019-04-01T07:06:32.087Z,55.57
2019-04-01T07:08:58.139Z,55.54
2019-04-01T07:11:24.210Z,54.92
2019-04-01T07:13:50.297Z,54.96
2019-04-01T07:16:16.400Z,54.44
2019-04-01T07:18:42.623Z,53.64
2019-04-01T07:21:08.656Z,52.41
2019-04-01T07:23:34.755Z,51.93
2019-04-01T07:26:01.227Z,52.10
2019-04-01T07:28:27.206Z,50.70
2019-04-01T07:30:53.218Z,51.16
2019-04-01T07:33:19.317Z,49.74
2019-04-01T07:35:46.717Z,48.66
2019-04-01T07:38:13.121Z,48.03
2019-04-01T07:40:39.237Z,48.39
2019-04-01T07:43:05.376Z,47.81
2019-04-01T07:45:31.439Z,46.83
2019-04-01T07:47:57.439Z,46.32
2019-04-01T07:50:23.592Z,45.66
2019-04-01T07:52:49.681Z,44.80
2019-04-01T07:55:15.659Z,44.63
2019-04-01T07:57:41.891Z,43.23
2019-04-01T08:00:08.295Z,43.82
2019-04-01T08:02:34.387Z,41.12
2019-04-01T08:05:00.712Z,40.75
2019-04-01T08:07:26.733Z,40.37
2019-04-01T08:09:52.859Z,39.45
2019-04-01T08:12:19.095Z,39.38
2019-04-01T08:14:45.103Z,38.44
2019-04-01T08:17:11.147Z,39.10
2019-04-01T08:19:38.200Z,38.76
2019-04-01T08:22:04.292Z,39.32
2019-04-01T08:24:32.091Z,38.06
2019-04-01T08:26:59.545Z,39.25
2019-04-01T08:29:30.379Z,39.79
2019-04-01T08:31:53.651Z,40.57
2019-04-01T08:34:19.690Z,38.99
2019-04-01T08:36:45.824Z,37.90
2019-04-01T08:39:12.649Z,37.82
2019-04-01T08:41:38.861Z,36.50
2019-04-01T08:44:04.909Z,36.59
2019-04-01T08:46:30.923Z,35.50
2019-04-01T08:48:56.967Z,33.28
2019-04-01T08:51:22.967Z,33.93
2019-04-01T08:53:48.991Z,33.13
2019-04-01T08:56:15.024Z,32.94
2019-04-01T08:58:41.152Z,33.08
2019-04-01T09:01:07.383Z,32.56
2019-04-01T09:03:33.362Z,32.60
2019-04-01T09:05:59.525Z,34.00
2019-04-01T09:08:26.004Z,33.04
2019-04-01T09:10:52.222Z,32.72
2019-04-01T09:13:18.317Z,29.13
2019-04-01T09:15:44.335Z,30.48
2019-04-01T09:18:10.368Z,29.95
2019-04-01T09:20:36.382Z,31.88
2019-04-01T09:23:02.378Z,32.09
2019-04-01T09:25:28.411Z,32.07
2019-04-01T09:27:54.969Z,32.55
2019-04-01T09:30:21.280Z,33.46
2019-04-01T09:32:47.331Z,33.89
2019-04-01T09:35:13.310Z,33.67
2019-04-01T09:37:39.334Z,31.00
2019-04-01T09:40:06.444Z,30.50
2019-04-01T09:42:32.456Z,33.39
2019-04-01T09:44:58.485Z,32.51
2019-04-01T09:47:24.488Z,31.07
2019-04-01T09:49:50.485Z,29.41
2019-04-01T09:52:16.528Z,28.80
2019-04-01T09:54:42.629Z,28.24
2019-04-01T09:57:17.295Z,27.50
2019-04-01T09:59:36.551Z,27.17
2019-04-01T10:02:02.687Z,27.51
2019-04-01T10:04:29.615Z,28.85
2019-04-01T10:06:55.619Z,28.55
2019-04-01T10:09:21.647Z,27.66
2019-04-01T10:11:47.644Z,27.03
2019-04-01T10:14:13.812Z,25.67
2019-04-01T10:16:39.854Z,25.96
2019-04-01T10:19:06.001Z,25.80
2019-04-01T10:21:32.039Z,25.35
2019-04-01T10:23:58.176Z,24.93
2019-04-01T10:26:24.172Z,24.99
2019-04-01T10:28:50.192Z,24.51
2019-04-01T10:31:16.189Z,26.02
2019-04-01T10:33:42.646Z,25.19
2019-04-01T10:36:08.650Z,24.67
2019-04-01T10:38:34.669Z,23.56
2019-04-01T10:41:00.788Z,23.35
2019-04-01T10:43:27.603Z,26.28
2019-04-01T10:45:54.800Z,24.74
2019-04-01T10:48:20.872Z,24.38
2019-04-01T10:50:47.116Z,23.93
2019-04-01T10:53:13.334Z,25.18
2019-04-01T10:55:40.447Z,24.83
2019-04-01T10:58:07.341Z,27.73
2019-04-01T11:00:33.537Z,26.73
2019-04-01T11:02:59.717Z,30.46
2019-04-01T11:05:25.760Z,27.80
2019-04-01T11:07:51.868Z,27.12
2019-04-01T11:10:17.983Z,27.61
2019-04-01T11:12:43.995Z,28.00
2019-04-01T11:15:15.764Z,27.44
2019-04-01T11:17:42.132Z,26.03
2019-04-01T11:20:11.517Z,27.77
2019-04-01T11:22:37.575Z,24.58
2019-04-01T11:25:05.944Z,24.57
2019-04-01T11:27:34.174Z,24.32
2019-04-01T11:30:00.422Z,26.37
2019-04-01T11:32:26.630Z,27.13
2019-04-01T11:34:55.969Z,25.06
2019-04-01T11:37:20.636Z,26.33
2019-04-01T11:39:46.868Z,25.06
2019-04-01T11:42:12.918Z,25.97
2019-04-01T11:44:40.107Z,24.96
2019-04-01T11:47:06.334Z,24.83
2019-04-01T11:49:32.451Z,23.10
2019-04-01T11:51:58.509Z,23.96
2019-04-01T11:54:24.536Z,24.19
2019-04-01T11:56:50.594Z,24.42
2019-04-01T11:59:16.605Z,24.46
2019-04-01T12:01:42.979Z,25.26
2019-04-01T12:04:08.975Z,25.51
2019-04-01T12:06:36.863Z,24.82
2019-04-01T12:09:05.032Z,24.70
2019-04-01T12:11:31.029Z,24.70
2019-04-01T12:13:57.087Z,24.45
2019-04-01T12:16:23.639Z,24.09
2019-04-01T12:18:49.758Z,24.21
2019-04-01T12:21:15.929Z,25.11
2019-04-01T12:23:41.939Z,26.67
2019-04-01T12:26:14.856Z,26.13
2019-04-01T12:28:36.670Z,26.12
2019-04-01T12:31:02.915Z,26.15
2019-04-01T12:33:30.075Z,24.89
2019-04-01T12:35:56.355Z,27.02
2019-04-01T12:38:24.689Z,26.77
2019-04-01T12:40:50.690Z,26.01
2019-04-01T12:43:16.767Z,24.20
2019-04-01T12:45:43.263Z,23.84
2019-04-01T12:48:09.817Z,23.68
2019-04-01T12:50:37.349Z,23.91
2019-04-01T12:53:03.396Z,23.93
2019-04-01T12:55:29.830Z,25.32
2019-04-01T12:57:57.380Z,24.27
2019-04-01T13:00:23.395Z,23.93
2019-04-01T13:02:49.835Z,22.52
2019-04-01T13:05:16.152Z,22.06
2019-04-01T13:07:42.234Z,22.40
2019-04-01T13:10:08.632Z,22.80
2019-04-01T13:12:34.735Z,24.65
2019-04-01T13:15:00.785Z,24.52
2019-04-01T13:17:26.842Z,24.61
2019-04-01T13:19:52.869Z,25.30
2019-04-01T13:22:18.998Z,25.52
2019-04-01T13:24:45.150Z,23.96
2019-04-01T13:27:11.260Z,24.14
2019-04-01T13:29:38.568Z,23.07
2019-04-01T13:32:04.682Z,22.89
2019-04-01T13:34:30.780Z,22.48
2019-04-01T13:36:56.791Z,24.10
2019-04-01T13:39:22.848Z,24.05
2019-04-01T13:41:48.906Z,24.06
2019-04-01T13:44:15.071Z,26.66
2019-04-01T13:46:43.083Z,24.77
2019-04-01T13:49:09.106Z,26.17
2019-04-01T13:51:35.183Z,27.00
2019-04-01T13:54:08.521Z,27.61
2019-04-01T13:56:29.751Z,27.44
2019-04-01T13:58:55.806Z,26.92
2019-04-01T14:01:21.871Z,27.02
2019-04-01T14:03:47.911Z,25.95
2019-04-01T14:06:13.906Z,25.00
2019-04-01T14:08:39.911Z,23.66
2019-04-01T14:11:06.235Z,24.40
2019-04-01T14:13:32.399Z,24.40
2019-04-01T14:15:58.384Z,24.85
2019-04-01T14:18:24.471Z,24.80
2019-04-01T14:20:50.513Z,25.91
2019-04-01T14:23:18.173Z,25.14
2019-04-01T14:25:44.432Z,26.06
2019-04-01T14:28:10.444Z,26.60
2019-04-01T14:30:36.722Z,26.83
2019-04-01T14:33:03.131Z,26.69
2019-04-01T14:35:29.527Z,24.41
2019-04-01T14:37:58.175Z,24.93
2019-04-01T14:40:25.500Z,25.02
2019-04-01T14:42:51.607Z,25.33
2019-04-01T14:45:17.648Z,25.76
2019-04-01T14:47:56.620Z,25.48
2019-04-01T14:50:11.980Z,25.46
2019-04-01T14:52:38.017Z,26.06
2019-04-01T14:55:04.294Z,25.95
2019-04-01T14:57:30.267Z,26.01
2019-04-01T14:59:56.516Z,26.51
2019-04-01T15:02:22.689Z,27.57
2019-04-01T15:04:48.708Z,28.82
2019-04-01T15:07:18.138Z,28.94
2019-04-01T15:09:42.757Z,28.96
2019-04-01T15:12:09.434Z,29.83
2019-04-01T15:14:36.340Z,30.68
2019-04-01T15:17:02.331Z,31.51
2019-04-01T15:19:28.344Z,31.64
2019-04-01T15:21:54.318Z,32.27
2019-04-01T15:24:20.825Z,32.51
2019-04-01T15:26:47.006Z,31.58
2019-04-01T15:29:13.131Z,32.35
2019-04-01T15:31:39.114Z,31.14
2019-04-01T15:34:08.880Z,31.09
2019-04-01T15:36:33.413Z,30.69
2019-04-01T15:38:59.735Z,31.51
2019-04-01T15:41:26.888Z,32.67
2019-04-01T15:43:53.076Z,33.34
2019-04-01T15:46:19.451Z,33.33
2019-04-01T15:48:45.485Z,33.94
2019-04-01T15:51:11.612Z,33.80
2019-04-01T15:53:37.646Z,34.62
2019-04-01T15:56:03.701Z,34.72
2019-04-01T15:58:30.081Z,34.62
2019-04-01T16:00:56.304Z,35.43
2019-04-01T16:03:22.456Z,34.84
2019-04-01T16:05:49.521Z,35.26
2019-04-01T16:08:15.705Z,35.26
2019-04-01T16:10:41.840Z,35.77
2019-04-01T16:13:10.459Z,36.65
2019-04-01T16:15:38.762Z,36.07
2019-04-01T16:18:05.155Z,35.48
2019-04-01T16:20:34.045Z,35.99
2019-04-01T16:22:59.503Z,36.51
2019-04-01T16:25:25.871Z,36.81
2019-04-01T16:27:51.864Z,37.01
2019-04-01T16:30:18.138Z,37.93
2019-04-01T16:32:44.152Z,37.34
2019-04-01T16:35:10.586Z,37.80
2019-04-01T16:37:37.388Z,37.87
2019-04-01T16:40:05.818Z,38.32
2019-04-01T16:42:32.045Z,38.43
2019-04-01T16:44:58.067Z,38.90
2019-04-01T16:47:24.323Z,38.27
2019-04-01T16:49:50.527Z,38.46
2019-04-01T16:52:16.720Z,38.54
2019-04-01T16:54:46.514Z,38.46
2019-04-01T16:57:12.899Z,39.25
2019-04-01T16:59:39.062Z,37.86
2019-04-01T17:02:17.498Z,38.96
2019-04-01T17:04:33.307Z,37.71
2019-04-01T17:06:59.359Z,37.40
2019-04-01T17:09:25.599Z,37.80
2019-04-01T17:11:54.315Z,37.74
2019-04-01T17:14:19.632Z,37.63
2019-04-01T17:16:45.778Z,37.88
2019-04-01T17:19:11.928Z,38.32
2019-04-01T17:21:38.060Z,38.27
2019-04-01T17:24:04.058Z,38.54
2019-04-01T17:26:30.093Z,38.69
2019-04-01T17:28:56.128Z,38.87
2019-04-01T17:31:22.422Z,38.96
2019-04-01T17:33:49.136Z,38.67
2019-04-01T17:36:15.890Z,38.70
2019-04-01T17:38:42.213Z,38.63
2019-04-01T17:41:08.395Z,39.17
2019-04-01T17:43:34.567Z,39.55
2019-04-01T17:46:00.721Z,39.53
2019-04-01T17:48:26.753Z,40.05
2019-04-01T17:50:52.751Z,40.16
2019-04-01T17:53:19.008Z,40.57
2019-04-01T17:55:45.730Z,40.82
2019-04-01T17:58:12.000Z,40.81
2019-04-01T18:00:41.902Z,40.96
2019-04-01T18:03:09.479Z,41.90
2019-04-01T18:05:35.708Z,41.19
2019-04-01T18:08:02.339Z,41.65
2019-04-01T18:10:28.837Z,41.90
2019-04-01T18:12:55.311Z,41.82
2019-04-01T18:15:21.548Z,42.41
2019-04-01T18:17:47.587Z,42.16
2019-04-01T18:20:13.715Z,42.63
2019-04-01T18:22:40.072Z,42.76
2019-04-01T18:25:06.775Z,42.67
2019-04-01T18:27:33.377Z,43.01
2019-04-01T18:29:59.456Z,43.43
2019-04-01T18:32:25.452Z,43.43
2019-04-01T18:34:51.471Z,43.60
2019-04-01T18:37:17.621Z,43.79
2019-04-01T18:39:48.310Z,44.24
2019-04-01T18:42:12.037Z,45.04
2019-04-01T18:44:38.158Z,45.58
2019-04-01T18:47:04.815Z,45.25
2019-04-01T18:49:31.010Z,45.11
2019-04-01T18:51:57.000Z,45.21
2019-04-01T18:54:23.040Z,45.48
2019-04-01T18:56:49.019Z,45.97
2019-04-01T18:59:15.032Z,45.84
2019-04-01T19:01:41.416Z,46.80
2019-04-01T19:04:07.393Z,47.01
2019-04-01T19:06:33.507Z,46.65
2019-04-01T19:09:09.064Z,46.71
2019-04-01T19:11:27.699Z,49.19
2019-04-01T19:13:53.756Z,51.31
2019-04-01T19:16:22.955Z,48.88
2019-04-01T19:18:47.781Z,48.35
2019-04-01T19:21:14.308Z,49.36
2019-04-01T19:23:42.194Z,49.37
2019-04-01T19:26:14.724Z,50.72
2019-04-01T19:28:47.198Z,52.78
2019-04-01T19:31:17.233Z,54.55
2019-04-01T19:33:44.227Z,56.68
2019-04-01T19:36:10.426Z,57.75
2019-04-01T19:38:37.635Z,59.15
2019-04-01T19:41:03.694Z,59.91
2019-04-01T19:43:30.121Z,61.02
2019-04-01T19:45:56.173Z,61.90
2019-04-01T19:48:22.202Z,62.00
2019-04-01T19:50:48.280Z,62.55
2019-04-01T19:53:14.379Z,62.97
2019-04-01T19:55:43.628Z,63.19
2019-04-01T19:58:08.355Z,64.31
2019-04-01T20:00:34.751Z,64.18
2019-04-01T20:03:01.975Z,64.29
2019-04-01T20:05:27.963Z,65.05
2019-04-01T20:07:53.955Z,65.45
2019-04-01T20:10:20.013Z,64.90
2019-04-01T20:12:46.024Z,65.23
2019-04-01T20:15:13.308Z,65.71
2019-04-01T20:17:39.577Z,66.12
2019-04-01T20:20:06.419Z,66.48
2019-04-01T20:22:32.758Z,66.64
2019-04-01T20:24:58.779Z,68.73
2019-04-01T20:27:24.824Z,68.06
2019-04-01T20:29:50.931Z,67.21
2019-04-01T20:32:18.933Z,67.59
2019-04-01T20:34:56.374Z,67.83
2019-04-01T20:37:12.792Z,68.31
2019-04-01T20:39:38.815Z,68.73
2019-04-01T20:42:07.055Z,68.83
2019-04-01T20:44:32.823Z,69.21
2019-04-01T20:46:58.880Z,69.43
2019-04-01T20:49:24.867Z,70.06
2019-04-01T20:51:50.847Z,70.32
2019-04-01T20:54:16.876Z,69.94
2019-04-01T20:56:42.923Z,70.51
2019-04-01T20:59:10.222Z,70.69
2019-04-01T21:01:36.513Z,70.86
2019-04-01T21:04:02.628Z,70.89
2019-04-01T21:06:28.652Z,71.08
2019-04-01T21:08:54.687Z,71.36
2019-04-01T21:11:20.767Z,71.57
2019-04-01T21:13:46.795Z,72.07
2019-04-01T21:16:12.837Z,72.11
2019-04-01T21:18:38.928Z,72.86
2019-04-01T21:21:05.141Z,72.99
2019-04-01T21:23:31.126Z,72.97
2019-04-01T21:25:58.104Z,73.50
2019-04-01T21:28:25.456Z,73.75
2019-04-01T21:30:51.629Z,74.43
2019-04-01T21:33:17.625Z,74.76
2019-04-01T21:35:43.715Z,75.37
2019-04-01T21:38:09.747Z,75.54
2019-04-01T21:40:35.789Z,75.28
2019-04-01T21:43:03.208Z,74.76
2019-04-01T21:45:29.483Z,75.09
2019-04-01T21:47:55.478Z,75.00
2019-04-01T21:50:21.482Z,75.08
2019-04-01T21:52:47.611Z,75.47
2019-04-01T21:55:14.170Z,75.96
2019-04-01T21:57:40.257Z,75.49
2019-04-01T22:00:10.501Z,75.58
2019-04-01T22:02:36.607Z,75.81
2019-04-01T22:05:04.837Z,76.72
2019-04-01T22:07:31.300Z,76.56
2019-04-01T22:09:57.327Z,75.92
2019-04-01T22:12:23.478Z,75.90
2019-04-01T22:14:49.952Z,75.39
2019-04-01T22:17:16.138Z,75.39
2019-04-01T22:19:43.009Z,75.26
2019-04-01T22:22:09.396Z,74.71
2019-04-01T22:24:35.521Z,74.80
2019-04-01T22:27:01.504Z,74.68
2019-04-01T22:29:27.544Z,74.59
2019-04-01T22:31:53.592Z,74.58
2019-04-01T22:34:19.789Z,74.41
2019-04-01T22:36:45.788Z,74.03
2019-04-01T22:39:11.837Z,73.74
2019-04-01T22:41:37.955Z,73.74
2019-04-01T22:44:03.996Z,73.87
2019-04-01T22:46:29.990Z,73.40
2019-04-01T22:48:56.022Z,73.54
2019-04-01T22:51:22.037Z,73.54
2019-04-01T22:53:48.011Z,73.16
2019-04-01T22:56:14.047Z,72.92
2019-04-01T22:58:40.120Z,72.86
2019-04-01T23:01:06.233Z,72.89
2019-04-01T23:03:32.278Z,72.62
2019-04-01T23:05:58.284Z,72.53
2019-04-01T23:08:24.290Z,72.04
2019-04-01T23:10:50.300Z,71.95
2019-04-01T23:13:16.271Z,71.97
2019-04-01T23:15:43.169Z,71.77
2019-04-01T23:18:10.186Z,71.47
2019-04-01T23:20:36.168Z,71.53
2019-04-01T23:23:02.188Z,70.90
2019-04-01T23:25:28.272Z,71.10
2019-04-01T23:27:55.344Z,70.65
2019-04-01T23:30:21.550Z,70.95
2019-04-01T23:32:47.576Z,70.92
2019-04-01T23:35:13.548Z,70.54
2019-04-01T23:37:39.575Z,70.85
2019-04-01T23:40:05.867Z,70.34
2019-04-01T23:42:31.839Z,70.44
2019-04-01T23:44:57.862Z,70.49
2019-04-01T23:47:23.908Z,70.44
2019-04-01T23:49:50.454Z,70.33
2019-04-01T23:52:16.447Z,69.65
2019-04-01T23:54:42.448Z,69.41
2019-04-01T23:57:08.446Z,69.98
2019-04-01T23:59:34.543Z,69.94
